sensor_id;sensor_type;location;lat;lon;timestamp;pressure;altitude;pressure_sealevel;temperature;humidity
50105;BME280;47690;39.202;-77.198;2023-04-19T00:00:50;99538.59;;;41.53;4.97
50105;BME280;47690;39.202;-77.198;2023-04-19T00:03:19;99539.25;;;41.43;4.88
50105;BME280;47690;39.202;-77.198;2023-04-19T00:05:48;99538.66;;;41.41;4.91
50105;BME280;47690;39.202;-77.198;2023-04-19T00:08:16;99541.03;;;41.37;4.99
50105;BME280;47690;39.202;-77.198;2023-04-19T00:10:45;99549.31;;;41.31;4.53
50105;BME280;47690;39.202;-77.198;2023-04-19T00:13:14;99569.44;;;41.23;4.98
50105;BME280;47690;39.202;-77.198;2023-04-19T00:15:46;99566.06;;;41.16;4.96
50105;BME280;47690;39.202;-77.198;2023-04-19T00:18:15;99574.41;;;41.14;5.13
50105;BME280;47690;39.202;-77.198;2023-04-19T00:20:44;99578.63;;;41.10;4.84
50105;BME280;47690;39.202;-77.198;2023-04-19T00:23:13;99584.44;;;41.02;5.26
50105;BME280;47690;39.202;-77.198;2023-04-19T00:25:47;99584.09;;;40.98;4.96
50105;BME280;47690;39.202;-77.198;2023-04-19T00:28:24;99592.44;;;40.96;5.26
50105;BME280;47690;39.202;-77.198;2023-04-19T00:31:02;99615.03;;;40.90;5.01
50105;BME280;47690;39.202;-77.198;2023-04-19T00:33:49;99619.94;;;40.93;4.96
50105;BME280;47690;39.202;-77.198;2023-04-19T00:38:08;99631.56;;;41.23;5.30
50105;BME280;47690;39.202;-77.198;2023-04-19T00:40:41;99643.44;;;40.69;5.05
50105;BME280;47690;39.202;-77.198;2023-04-19T00:43:11;99642.06;;;40.42;5.28
50105;BME280;47690;39.202;-77.198;2023-04-19T00:45:41;99655.44;;;40.37;5.56
50105;BME280;47690;39.202;-77.198;2023-04-19T00:48:24;99664.94;;;40.40;5.71
50105;BME280;47690;39.202;-77.198;2023-04-19T00:50:56;99673.59;;;40.30;5.04
50105;BME280;47690;39.202;-77.198;2023-04-19T00:53:31;99684.88;;;40.27;5.14
50105;BME280;47690;39.202;-77.198;2023-04-19T00:56:10;99678.41;;;40.28;5.37
50105;BME280;47690;39.202;-77.198;2023-04-19T00:58:45;99688.25;;;40.10;5.49
50105;BME280;47690;39.202;-77.198;2023-04-19T01:01:14;99694.22;;;40.00;5.21
50105;BME280;47690;39.202;-77.198;2023-04-19T01:03:48;99694.47;;;39.99;5.31
50105;BME280;47690;39.202;-77.198;2023-04-19T01:06:20;99712.03;;;39.90;5.41
50105;BME280;47690;39.202;-77.198;2023-04-19T01:08:48;99720.78;;;39.85;5.28
50105;BME280;47690;39.202;-77.198;2023-04-19T01:11:18;99725.69;;;39.88;5.63
50105;BME280;47690;39.202;-77.198;2023-04-19T01:13:48;99734.34;;;39.78;5.72
50105;BME280;47690;39.202;-77.198;2023-04-19T01:16:18;99739.00;;;39.71;5.14
50105;BME280;47690;39.202;-77.198;2023-04-19T01:18:49;99751.44;;;39.72;5.64
50105;BME280;47690;39.202;-77.198;2023-04-19T01:21:18;99749.19;;;39.69;5.60
50105;BME280;47690;39.202;-77.198;2023-04-19T01:23:50;99765.84;;;39.66;5.63
50105;BME280;47690;39.202;-77.198;2023-04-19T01:26:20;99767.13;;;39.63;5.71
50105;BME280;47690;39.202;-77.198;2023-04-19T01:28:51;99763.00;;;39.60;5.89
50105;BME280;47690;39.202;-77.198;2023-04-19T01:31:19;99763.47;;;39.57;5.37
50105;BME280;47690;39.202;-77.198;2023-04-19T01:33:48;99770.19;;;39.48;5.56
50105;BME280;47690;39.202;-77.198;2023-04-19T01:36:17;99777.22;;;39.49;5.55
50105;BME280;47690;39.202;-77.198;2023-04-19T01:38:45;99790.38;;;39.39;5.63
50105;BME280;47690;39.202;-77.198;2023-04-19T01:41:17;99801.84;;;39.34;5.90
50105;BME280;47690;39.202;-77.198;2023-04-19T01:43:49;99818.31;;;39.26;5.49
50105;BME280;47690;39.202;-77.198;2023-04-19T01:46:17;99824.06;;;39.29;5.51
50105;BME280;47690;39.202;-77.198;2023-04-19T01:48:46;99831.03;;;39.18;5.62
50105;BME280;47690;39.202;-77.198;2023-04-19T01:51:14;99826.97;;;39.09;5.65
50105;BME280;47690;39.202;-77.198;2023-04-19T01:53:44;99833.19;;;39.28;5.64
50105;BME280;47690;39.202;-77.198;2023-04-19T01:56:12;99822.25;;;39.04;5.80
50105;BME280;47690;39.202;-77.198;2023-04-19T01:58:41;99817.13;;;38.96;5.78
50105;BME280;47690;39.202;-77.198;2023-04-19T02:01:12;99828.69;;;38.78;5.37
50105;BME280;47690;39.202;-77.198;2023-04-19T02:03:41;99838.94;;;38.62;5.52
50105;BME280;47690;39.202;-77.198;2023-04-19T02:06:11;99841.03;;;39.30;5.54
50105;BME280;47690;39.202;-77.198;2023-04-19T02:08:41;99860.25;;;38.64;6.03
50105;BME280;47690;39.202;-77.198;2023-04-19T02:11:11;99854.78;;;38.45;5.75
50105;BME280;47690;39.202;-77.198;2023-04-19T02:13:46;99870.06;;;38.51;5.99
50105;BME280;47690;39.202;-77.198;2023-04-19T02:16:15;99868.78;;;39.56;5.42
50105;BME280;47690;39.202;-77.198;2023-04-19T02:18:43;99879.25;;;39.83;5.17
50105;BME280;47690;39.202;-77.198;2023-04-19T02:21:13;99872.84;;;38.70;5.74
50105;BME280;47690;39.202;-77.198;2023-04-19T02:23:42;99877.06;;;38.20;6.02
50105;BME280;47690;39.202;-77.198;2023-04-19T02:26:11;99884.38;;;37.99;6.15
50105;BME280;47690;39.202;-77.198;2023-04-19T02:28:42;99885.06;;;37.88;6.09
50105;BME280;47690;39.202;-77.198;2023-04-19T02:31:13;99903.09;;;37.81;5.83
50105;BME280;47690;39.202;-77.198;2023-04-19T02:33:41;99903.00;;;37.94;5.79
50105;BME280;47690;39.202;-77.198;2023-04-19T02:36:10;99917.72;;;37.85;6.17
50105;BME280;47690;39.202;-77.198;2023-04-19T02:38:41;99916.13;;;37.77;6.04
50105;BME280;47690;39.202;-77.198;2023-04-19T02:41:09;99932.25;;;37.70;5.89
50105;BME280;47690;39.202;-77.198;2023-04-19T02:43:39;99934.53;;;37.67;6.34
50105;BME280;47690;39.202;-77.198;2023-04-19T02:46:53;99935.88;;;38.10;6.18
50105;BME280;47690;39.202;-77.198;2023-04-19T02:49:31;99937.19;;;37.80;5.95
50105;BME280;47690;39.202;-77.198;2023-04-19T02:52:13;99939.50;;;37.70;6.31
50105;BME280;47690;39.202;-77.198;2023-04-19T02:55:17;99937.72;;;38.03;6.26
50105;BME280;47690;39.202;-77.198;2023-04-19T02:58:03;99948.34;;;37.70;6.15
50105;BME280;47690;39.202;-77.198;2023-04-19T03:00:42;99953.16;;;37.62;6.29
50105;BME280;47690;39.202;-77.198;2023-04-19T03:03:17;99947.34;;;37.51;6.30
50105;BME280;47690;39.202;-77.198;2023-04-19T03:05:48;99945.50;;;37.38;5.89
50105;BME280;47690;39.202;-77.198;2023-04-19T03:08:31;99950.88;;;37.38;6.32
50105;BME280;47690;39.202;-77.198;2023-04-19T03:11:06;99946.13;;;37.34;6.26
50105;BME280;47690;39.202;-77.198;2023-04-19T03:13:37;99957.78;;;38.14;6.15
50105;BME280;47690;39.202;-77.198;2023-04-19T03:16:17;99966.97;;;37.52;6.13
50105;BME280;47690;39.202;-77.198;2023-04-19T03:18:47;99977.50;;;37.33;6.39
50105;BME280;47690;39.202;-77.198;2023-04-19T03:21:22;99981.03;;;37.34;6.27
50105;BME280;47690;39.202;-77.198;2023-04-19T03:24:06;99975.47;;;37.28;6.28
50105;BME280;47690;39.202;-77.198;2023-04-19T03:26:39;99989.28;;;37.12;6.49
50105;BME280;47690;39.202;-77.198;2023-04-19T03:29:18;99986.56;;;36.98;6.54
50105;BME280;47690;39.202;-77.198;2023-04-19T03:32:11;99986.59;;;37.12;6.26
50105;BME280;47690;39.202;-77.198;2023-04-19T03:34:44;99992.34;;;37.02;6.22
50105;BME280;47690;39.202;-77.198;2023-04-19T03:37:15;99999.16;;;36.91;6.30
50105;BME280;47690;39.202;-77.198;2023-04-19T03:39:54;99998.94;;;36.93;6.66
50105;BME280;47690;39.202;-77.198;2023-04-19T03:42:33;99996.47;;;36.91;6.18
50105;BME280;47690;39.202;-77.198;2023-04-19T03:45:17;99994.16;;;36.81;6.21
50105;BME280;47690;39.202;-77.198;2023-04-19T03:47:47;99991.88;;;36.71;6.25
50105;BME280;47690;39.202;-77.198;2023-04-19T03:50:22;99995.16;;;36.67;6.35
50105;BME280;47690;39.202;-77.198;2023-04-19T03:52:57;99995.97;;;36.60;6.66
50105;BME280;47690;39.202;-77.198;2023-04-19T03:55:33;100003.56;;;36.57;6.45
50105;BME280;47690;39.202;-77.198;2023-04-19T03:58:07;100015.13;;;36.50;6.54
50105;BME280;47690;39.202;-77.198;2023-04-19T04:00:50;100016.16;;;36.56;6.40
50105;BME280;47690;39.202;-77.198;2023-04-19T04:03:23;100017.13;;;36.42;6.41
50105;BME280;47690;39.202;-77.198;2023-04-19T04:06:02;100020.59;;;36.35;6.79
50105;BME280;47690;39.202;-77.198;2023-04-19T04:08:32;100022.53;;;36.13;6.69
50105;BME280;47690;39.202;-77.198;2023-04-19T04:11:05;100032.19;;;36.07;6.76
50105;BME280;47690;39.202;-77.198;2023-04-19T04:13:37;100035.75;;;36.15;6.88
50105;BME280;47690;39.202;-77.198;2023-04-19T04:16:18;100037.22;;;36.17;6.89
50105;BME280;47690;39.202;-77.198;2023-04-19T04:18:51;100032.38;;;36.06;6.47
50105;BME280;47690;39.202;-77.198;2023-04-19T04:21:22;100045.13;;;35.97;6.79
50105;BME280;47690;39.202;-77.198;2023-04-19T04:23:57;100044.03;;;35.91;6.70
50105;BME280;47690;39.202;-77.198;2023-04-19T04:26:42;100051.72;;;36.01;6.64
50105;BME280;47690;39.202;-77.198;2023-04-19T04:29:31;100050.47;;;35.97;6.71
50105;BME280;47690;39.202;-77.198;2023-04-19T04:32:06;100058.72;;;35.95;6.56
50105;BME280;47690;39.202;-77.198;2023-04-19T04:34:42;100061.56;;;35.94;6.76
50105;BME280;47690;39.202;-77.198;2023-04-19T04:37:21;100062.59;;;35.93;6.88
50105;BME280;47690;39.202;-77.198;2023-04-19T04:39:53;100067.75;;;35.88;6.91
50105;BME280;47690;39.202;-77.198;2023-04-19T04:42:22;100079.22;;;35.81;7.05
50105;BME280;47690;39.202;-77.198;2023-04-19T04:44:53;100077.94;;;35.77;6.90
50105;BME280;47690;39.202;-77.198;2023-04-19T04:47:31;100081.22;;;35.73;7.15
50105;BME280;47690;39.202;-77.198;2023-04-19T04:50:06;100089.00;;;35.67;7.13
50105;BME280;47690;39.202;-77.198;2023-04-19T04:52:38;100078.22;;;35.61;6.78
50105;BME280;47690;39.202;-77.198;2023-04-19T04:55:13;100082.41;;;35.48;7.20
50105;BME280;47690;39.202;-77.198;2023-04-19T04:57:44;100082.47;;;36.34;6.51
50105;BME280;47690;39.202;-77.198;2023-04-19T05:00:25;100093.31;;;36.54;6.65
50105;BME280;47690;39.202;-77.198;2023-04-19T05:03:01;100100.06;;;35.42;7.14
50105;BME280;47690;39.202;-77.198;2023-04-19T05:05:37;100103.59;;;35.21;7.17
50105;BME280;47690;39.202;-77.198;2023-04-19T05:08:13;100098.09;;;35.08;7.23
50105;BME280;47690;39.202;-77.198;2023-04-19T05:10:42;100110.69;;;34.99;7.20
50105;BME280;47690;39.202;-77.198;2023-04-19T05:13:14;100108.31;;;34.89;7.24
50105;BME280;47690;39.202;-77.198;2023-04-19T05:15:49;100115.06;;;34.85;7.35
50105;BME280;47690;39.202;-77.198;2023-04-19T05:18:19;100118.03;;;34.75;7.43
50105;BME280;47690;39.202;-77.198;2023-04-19T05:20:49;100117.28;;;34.66;7.55
50105;BME280;47690;39.202;-77.198;2023-04-19T05:23:22;100114.72;;;34.58;7.38
50105;BME280;47690;39.202;-77.198;2023-04-19T05:25:53;100120.22;;;34.41;7.61
50105;BME280;47690;39.202;-77.198;2023-04-19T05:28:26;100120.97;;;34.35;7.54
50105;BME280;47690;39.202;-77.198;2023-04-19T05:31:11;100125.47;;;34.50;7.53
50105;BME280;47690;39.202;-77.198;2023-04-19T05:33:57;100131.56;;;34.43;7.53
50105;BME280;47690;39.202;-77.198;2023-04-19T05:36:31;100120.31;;;34.33;7.80
50105;BME280;47690;39.202;-77.198;2023-04-19T05:39:01;100109.47;;;36.04;7.01
50105;BME280;47690;39.202;-77.198;2023-04-19T05:41:34;100113.50;;;36.15;6.93
50105;BME280;47690;39.202;-77.198;2023-04-19T05:44:05;100117.47;;;36.19;6.60
50105;BME280;47690;39.202;-77.198;2023-04-19T05:46:34;100113.91;;;36.47;6.30
50105;BME280;47690;39.202;-77.198;2023-04-19T05:49:07;100112.53;;;36.22;6.95
50105;BME280;47690;39.202;-77.198;2023-04-19T05:51:57;100117.69;;;34.63;7.35
50105;BME280;47690;39.202;-77.198;2023-04-19T05:54:51;100113.03;;;34.27;7.68
50105;BME280;47690;39.202;-77.198;2023-04-19T05:57:19;100113.94;;;33.96;7.96
50105;BME280;47690;39.202;-77.198;2023-04-19T05:59:53;100111.72;;;33.84;8.05
50105;BME280;47690;39.202;-77.198;2023-04-19T06:02:26;100108.63;;;33.72;7.88
50105;BME280;47690;39.202;-77.198;2023-04-19T06:04:59;100106.50;;;33.68;7.71
50105;BME280;47690;39.202;-77.198;2023-04-19T06:07:38;100101.16;;;33.68;8.24
50105;BME280;47690;39.202;-77.198;2023-04-19T06:10:27;100103.16;;;33.65;7.81
50105;BME280;47690;39.202;-77.198;2023-04-19T06:13:18;100106.09;;;33.56;7.65
50105;BME280;47690;39.202;-77.198;2023-04-19T06:15:49;100102.47;;;33.48;8.19
50105;BME280;47690;39.202;-77.198;2023-04-19T06:18:18;100093.19;;;33.36;7.96
50105;BME280;47690;39.202;-77.198;2023-04-19T06:21:07;100102.38;;;33.33;8.01
50105;BME280;47690;39.202;-77.198;2023-04-19T06:23:59;100102.13;;;33.20;7.95
50105;BME280;47690;39.202;-77.198;2023-04-19T06:26:50;100104.34;;;33.08;8.16
50105;BME280;47690;39.202;-77.198;2023-04-19T06:29:38;100105.56;;;32.97;8.20
50105;BME280;47690;39.202;-77.198;2023-04-19T06:32:10;100100.72;;;32.92;8.52
50105;BME280;47690;39.202;-77.198;2023-04-19T06:34:39;100104.97;;;32.78;8.64
50105;BME280;47690;39.202;-77.198;2023-04-19T06:37:10;100104.69;;;32.65;8.49
50105;BME280;47690;39.202;-77.198;2023-04-19T06:39:41;100110.88;;;32.57;8.20
50105;BME280;47690;39.202;-77.198;2023-04-19T06:42:13;100117.03;;;32.58;8.31
50105;BME280;47690;39.202;-77.198;2023-04-19T06:44:45;100113.03;;;32.53;8.40
50105;BME280;47690;39.202;-77.198;2023-04-19T06:47:15;100119.06;;;32.47;8.66
50105;BME280;47690;39.202;-77.198;2023-04-19T06:49:46;100114.25;;;32.42;8.43
50105;BME280;47690;39.202;-77.198;2023-04-19T06:52:15;100111.41;;;32.36;8.68
50105;BME280;47690;39.202;-77.198;2023-04-19T06:54:50;100118.41;;;32.45;8.33
50105;BME280;47690;39.202;-77.198;2023-04-19T06:57:19;100109.41;;;32.29;9.03
50105;BME280;47690;39.202;-77.198;2023-04-19T06:59:50;100108.44;;;32.22;8.53
50105;BME280;47690;39.202;-77.198;2023-04-19T07:02:19;100118.78;;;32.00;8.90
50105;BME280;47690;39.202;-77.198;2023-04-19T07:04:51;100117.78;;;31.85;9.08
50105;BME280;47690;39.202;-77.198;2023-04-19T07:07:19;100130.22;;;31.76;8.93
50105;BME280;47690;39.202;-77.198;2023-04-19T07:09:50;100119.06;;;31.72;9.05
50105;BME280;47690;39.202;-77.198;2023-04-19T07:12:21;100124.09;;;31.84;8.85
50105;BME280;47690;39.202;-77.198;2023-04-19T07:14:51;100133.03;;;32.33;8.82
50105;BME280;47690;39.202;-77.198;2023-04-19T07:17:25;100123.41;;;32.23;8.97
50105;BME280;47690;39.202;-77.198;2023-04-19T07:19:57;100131.25;;;31.83;8.96
50105;BME280;47690;39.202;-77.198;2023-04-19T07:22:27;100125.53;;;31.61;8.93
50105;BME280;47690;39.202;-77.198;2023-04-19T07:25:01;100123.72;;;31.45;9.03
50105;BME280;47690;39.202;-77.198;2023-04-19T07:27:31;100138.97;;;31.35;9.17
50105;BME280;47690;39.202;-77.198;2023-04-19T07:30:01;100136.63;;;31.32;9.10
50105;BME280;47690;39.202;-77.198;2023-04-19T07:32:31;100137.16;;;31.36;9.33
50105;BME280;47690;39.202;-77.198;2023-04-19T07:35:01;100145.31;;;31.42;9.37
50105;BME280;47690;39.202;-77.198;2023-04-19T07:37:30;100145.81;;;31.54;9.17
50105;BME280;47690;39.202;-77.198;2023-04-19T07:40:00;100131.72;;;31.79;8.85
50105;BME280;47690;39.202;-77.198;2023-04-19T07:42:31;100141.69;;;31.60;8.99
50105;BME280;47690;39.202;-77.198;2023-04-19T07:45:01;100152.63;;;31.48;9.00
50105;BME280;47690;39.202;-77.198;2023-04-19T07:47:31;100152.97;;;31.45;8.88
50105;BME280;47690;39.202;-77.198;2023-04-19T07:50:02;100152.63;;;31.48;9.02
50105;BME280;47690;39.202;-77.198;2023-04-19T07:52:34;100148.97;;;31.41;8.81
50105;BME280;47690;39.202;-77.198;2023-04-19T07:55:05;100156.09;;;31.41;8.93
50105;BME280;47690;39.202;-77.198;2023-04-19T07:57:35;100161.34;;;31.24;8.99
50105;BME280;47690;39.202;-77.198;2023-04-19T08:00:04;100164.81;;;31.08;9.32
50105;BME280;47690;39.202;-77.198;2023-04-19T08:02:45;100168.78;;;31.12;9.54
50105;BME280;47690;39.202;-77.198;2023-04-19T08:05:17;100177.66;;;31.21;9.48
50105;BME280;47690;39.202;-77.198;2023-04-19T08:07:51;100173.78;;;31.50;9.38
50105;BME280;47690;39.202;-77.198;2023-04-19T08:10:25;100177.38;;;31.32;9.50
50105;BME280;47690;39.202;-77.198;2023-04-19T08:13:01;100175.56;;;31.33;9.30
50105;BME280;47690;39.202;-77.198;2023-04-19T08:15:34;100171.88;;;31.26;9.17
50105;BME280;47690;39.202;-77.198;2023-04-19T08:18:05;100172.63;;;31.18;8.88
50105;BME280;47690;39.202;-77.198;2023-04-19T08:20:35;100173.06;;;31.40;8.88
50105;BME280;47690;39.202;-77.198;2023-04-19T08:23:05;100169.31;;;31.16;9.18
50105;BME280;47690;39.202;-77.198;2023-04-19T08:25:48;100173.09;;;31.05;9.09
50105;BME280;47690;39.202;-77.198;2023-04-19T08:28:18;100173.75;;;31.07;8.97
50105;BME280;47690;39.202;-77.198;2023-04-19T08:30:47;100183.84;;;30.95;9.16
50105;BME280;47690;39.202;-77.198;2023-04-19T08:33:17;100183.59;;;31.58;9.20
50105;BME280;47690;39.202;-77.198;2023-04-19T08:35:46;100172.53;;;32.29;8.20
50105;BME280;47690;39.202;-77.198;2023-04-19T08:38:15;100183.19;;;32.12;8.48
50105;BME280;47690;39.202;-77.198;2023-04-19T08:40:51;100181.16;;;31.81;9.16
50105;BME280;47690;39.202;-77.198;2023-04-19T08:43:25;100180.69;;;32.02;9.16
50105;BME280;47690;39.202;-77.198;2023-04-19T08:46:03;100186.88;;;31.00;9.06
50105;BME280;47690;39.202;-77.198;2023-04-19T08:48:34;100186.09;;;30.82;9.49
50105;BME280;47690;39.202;-77.198;2023-04-19T08:51:03;100198.25;;;31.19;9.06
50105;BME280;47690;39.202;-77.198;2023-04-19T08:53:33;100200.16;;;31.00;8.93
50105;BME280;47690;39.202;-77.198;2023-04-19T08:56:06;100205.28;;;31.80;8.51
50105;BME280;47690;39.202;-77.198;2023-04-19T08:58:51;100208.91;;;30.92;9.24
50105;BME280;47690;39.202;-77.198;2023-04-19T09:01:42;100216.94;;;30.74;9.35
50105;BME280;47690;39.202;-77.198;2023-04-19T09:04:12;100218.94;;;30.54;9.27
50105;BME280;47690;39.202;-77.198;2023-04-19T09:07:01;100221.31;;;30.57;9.10
50105;BME280;47690;39.202;-77.198;2023-04-19T09:09:33;100224.44;;;30.52;9.36
50105;BME280;47690;39.202;-77.198;2023-04-19T09:12:22;100228.00;;;30.43;9.41
50105;BME280;47690;39.202;-77.198;2023-04-19T09:14:53;100229.09;;;30.32;9.66
50105;BME280;47690;39.202;-77.198;2023-04-19T09:17:31;100234.19;;;30.25;9.59
50105;BME280;47690;39.202;-77.198;2023-04-19T09:20:01;100229.16;;;30.22;9.85
50105;BME280;47690;39.202;-77.198;2023-04-19T09:22:33;100235.97;;;30.43;9.34
50105;BME280;47690;39.202;-77.198;2023-04-19T09:25:03;100228.72;;;30.09;9.73
50105;BME280;47690;39.202;-77.198;2023-04-19T09:27:37;100238.38;;;30.10;9.66
50105;BME280;47690;39.202;-77.198;2023-04-19T09:30:07;100241.69;;;30.12;9.52
50105;BME280;47690;39.202;-77.198;2023-04-19T09:32:47;100246.53;;;30.17;9.67
50105;BME280;47690;39.202;-77.198;2023-04-19T09:35:17;100255.59;;;29.96;9.74
50105;BME280;47690;39.202;-77.198;2023-04-19T09:37:59;100259.13;;;30.51;9.78
50105;BME280;47690;39.202;-77.198;2023-04-19T09:40:33;100269.94;;;30.03;9.71
50105;BME280;47690;39.202;-77.198;2023-04-19T09:43:03;100266.59;;;29.83;9.66
50105;BME280;47690;39.202;-77.198;2023-04-19T09:45:57;100262.56;;;29.97;9.76
50105;BME280;47690;39.202;-77.198;2023-04-19T09:48:27;100268.50;;;29.91;9.69
50105;BME280;47690;39.202;-77.198;2023-04-19T09:51:01;100271.31;;;29.89;9.86
50105;BME280;47690;39.202;-77.198;2023-04-19T09:53:39;100271.63;;;30.77;9.50
50105;BME280;47690;39.202;-77.198;2023-04-19T09:56:11;100281.19;;;31.14;8.98
50105;BME280;47690;39.202;-77.198;2023-04-19T09:58:44;100290.84;;;31.15;9.27
50105;BME280;47690;39.202;-77.198;2023-04-19T10:01:27;100297.78;;;31.08;9.31
50105;BME280;47690;39.202;-77.198;2023-04-19T10:04:03;100293.44;;;31.07;9.29
50105;BME280;47690;39.202;-77.198;2023-04-19T10:06:54;100307.25;;;31.11;9.13
50105;BME280;47690;39.202;-77.198;2023-04-19T10:09:30;100320.47;;;30.94;9.33
50105;BME280;47690;39.202;-77.198;2023-04-19T10:12:08;100322.59;;;30.90;9.42
50105;BME280;47690;39.202;-77.198;2023-04-19T10:15:00;100326.56;;;30.86;9.35
50105;BME280;47690;39.202;-77.198;2023-04-19T10:17:32;100327.19;;;30.80;9.23
50105;BME280;47690;39.202;-77.198;2023-04-19T10:20:06;100336.81;;;30.81;9.33
50105;BME280;47690;39.202;-77.198;2023-04-19T10:22:39;100333.09;;;30.74;9.14
50105;BME280;47690;39.202;-77.198;2023-04-19T10:25:15;100346.94;;;30.77;9.23
50105;BME280;47690;39.202;-77.198;2023-04-19T10:28:05;100346.41;;;30.74;9.36
50105;BME280;47690;39.202;-77.198;2023-04-19T10:30:35;100353.22;;;30.58;9.38
50105;BME280;47690;39.202;-77.198;2023-04-19T10:33:34;100358.03;;;30.73;9.65
50105;BME280;47690;39.202;-77.198;2023-04-19T10:36:10;100368.31;;;30.58;9.20
50105;BME280;47690;39.202;-77.198;2023-04-19T10:38:48;100372.91;;;30.19;9.85
50105;BME280;47690;39.202;-77.198;2023-04-19T10:41:21;100376.44;;;30.38;9.29
50105;BME280;47690;39.202;-77.198;2023-04-19T10:49:06;100385.25;;;30.57;9.26
50105;BME280;47690;39.202;-77.198;2023-04-19T10:51:39;100396.78;;;30.47;9.43
50105;BME280;47690;39.202;-77.198;2023-04-19T10:54:37;100402.50;;;31.07;9.59
50105;BME280;47690;39.202;-77.198;2023-04-19T10:57:16;100394.72;;;30.69;9.09
50105;BME280;47690;39.202;-77.198;2023-04-19T11:00:20;100405.69;;;30.92;9.50
50105;BME280;47690;39.202;-77.198;2023-04-19T11:02:51;100410.81;;;30.67;9.44
50105;BME280;47690;39.202;-77.198;2023-04-19T11:05:22;100408.56;;;30.63;9.31
50105;BME280;47690;39.202;-77.198;2023-04-19T11:07:58;100409.03;;;30.58;9.24
50105;BME280;47690;39.202;-77.198;2023-04-19T11:10:31;100411.97;;;30.55;9.53
50105;BME280;47690;39.202;-77.198;2023-04-19T11:13:06;100419.22;;;30.63;9.53
50105;BME280;47690;39.202;-77.198;2023-04-19T11:15:42;100416.31;;;30.56;9.75
50105;BME280;47690;39.202;-77.198;2023-04-19T11:18:36;100415.06;;;30.78;9.93
50105;BME280;47690;39.202;-77.198;2023-04-19T11:21:19;100422.50;;;30.93;9.56
50105;BME280;47690;39.202;-77.198;2023-04-19T11:24:07;100424.41;;;31.01;9.95
50105;BME280;47690;39.202;-77.198;2023-04-19T11:26:42;100434.66;;;30.96;9.53
50105;BME280;47690;39.202;-77.198;2023-04-19T11:29:21;100434.13;;;30.92;9.15
50105;BME280;47690;39.202;-77.198;2023-04-19T11:31:53;100438.16;;;30.96;9.57
50105;BME280;47690;39.202;-77.198;2023-04-19T11:34:26;100440.91;;;30.86;9.45
50105;BME280;47690;39.202;-77.198;2023-04-19T11:37:00;100444.75;;;31.10;9.49
50105;BME280;47690;39.202;-77.198;2023-04-19T11:39:32;100447.63;;;31.35;9.31
50105;BME280;47690;39.202;-77.198;2023-04-19T11:42:04;100441.78;;;31.31;9.59
50105;BME280;47690;39.202;-77.198;2023-04-19T11:44:36;100448.78;;;31.32;9.44
50105;BME280;47690;39.202;-77.198;2023-04-19T11:47:09;100451.31;;;31.60;9.39
50105;BME280;47690;39.202;-77.198;2023-04-19T11:49:40;100452.06;;;31.71;9.26
50105;BME280;47690;39.202;-77.198;2023-04-19T11:52:20;100457.69;;;31.94;9.84
50105;BME280;47690;39.202;-77.198;2023-04-19T11:54:54;100451.97;;;32.75;8.99
50105;BME280;47690;39.202;-77.198;2023-04-19T11:57:31;100461.72;;;33.18;9.11
50105;BME280;47690;39.202;-77.198;2023-04-19T12:00:07;100458.03;;;33.35;9.17
50105;BME280;47690;39.202;-77.198;2023-04-19T12:02:43;100451.69;;;33.45;9.03
50105;BME280;47690;39.202;-77.198;2023-04-19T12:05:15;100466.34;;;32.91;8.91
50105;BME280;47690;39.202;-77.198;2023-04-19T12:10:55;100468.41;;;33.22;9.30
50105;BME280;47690;39.202;-77.198;2023-04-19T12:14:11;100467.53;;;33.71;9.56
50105;BME280;47690;39.202;-77.198;2023-04-19T12:16:43;100457.06;;;33.53;9.04
50105;BME280;47690;39.202;-77.198;2023-04-19T12:19:18;100458.81;;;33.86;9.20
50105;BME280;47690;39.202;-77.198;2023-04-19T12:22:07;100463.03;;;33.05;9.87
50105;BME280;47690;39.202;-77.198;2023-04-19T12:24:43;100461.22;;;33.06;9.82
50105;BME280;47690;39.202;-77.198;2023-04-19T12:27:18;100462.88;;;33.32;9.40
50105;BME280;47690;39.202;-77.198;2023-04-19T12:29:48;100467.88;;;33.43;9.85
50105;BME280;47690;39.202;-77.198;2023-04-19T12:32:22;100473.22;;;33.60;9.77
50105;BME280;47690;39.202;-77.198;2023-04-19T12:34:54;100473.84;;;33.78;9.76
50105;BME280;47690;39.202;-77.198;2023-04-19T12:37:28;100472.38;;;35.11;8.76
50105;BME280;47690;39.202;-77.198;2023-04-19T12:40:01;100472.47;;;35.41;8.96
50105;BME280;47690;39.202;-77.198;2023-04-19T12:42:34;100478.72;;;35.72;8.59
50105;BME280;47690;39.202;-77.198;2023-04-19T12:45:04;100477.25;;;35.84;8.79
50105;BME280;47690;39.202;-77.198;2023-04-19T12:47:42;100471.69;;;36.01;8.47
50105;BME280;47690;39.202;-77.198;2023-04-19T12:50:14;100469.84;;;36.16;8.93
50105;BME280;47690;39.202;-77.198;2023-04-19T12:52:45;100474.72;;;36.28;8.72
50105;BME280;47690;39.202;-77.198;2023-04-19T12:55:18;100474.06;;;36.41;8.39
50105;BME280;47690;39.202;-77.198;2023-04-19T12:57:49;100477.88;;;36.68;8.94
50105;BME280;47690;39.202;-77.198;2023-04-19T13:00:23;100474.75;;;36.86;8.24
50105;BME280;47690;39.202;-77.198;2023-04-19T13:03:01;100478.00;;;37.03;8.38
50105;BME280;47690;39.202;-77.198;2023-04-19T13:05:35;100477.63;;;37.07;8.25
50105;BME280;47690;39.202;-77.198;2023-04-19T13:08:09;100479.59;;;37.20;8.33
50105;BME280;47690;39.202;-77.198;2023-04-19T13:10:43;100469.97;;;37.25;8.19
50105;BME280;47690;39.202;-77.198;2023-04-19T13:13:13;100481.78;;;37.31;8.08
50105;BME280;47690;39.202;-77.198;2023-04-19T13:15:42;100481.59;;;37.33;8.27
50105;BME280;47690;39.202;-77.198;2023-04-19T13:18:15;100470.25;;;37.37;8.50
50105;BME280;47690;39.202;-77.198;2023-04-19T13:20:44;100477.16;;;37.53;8.36
50105;BME280;47690;39.202;-77.198;2023-04-19T13:23:16;100478.56;;;37.71;8.30
50105;BME280;47690;39.202;-77.198;2023-04-19T13:25:47;100467.50;;;37.94;8.24
50105;BME280;47690;39.202;-77.198;2023-04-19T13:28:16;100467.84;;;37.78;8.46
50105;BME280;47690;39.202;-77.198;2023-04-19T13:30:47;100459.56;;;38.15;8.19